Latest Weather Observations for Wyndham Airport

IDD60801

Issued at 6:01 pm CST Monday 27 March 2017 (issued every 30 minutes, with the page automatically refreshed every 10 minutes)

About weather observations | Map of weather stations | Latest weather observations for NT | Other Formats
Station Details ID: 001006 Name: WYNDHAM AERO Lat: -15.51 Lon: 128.15 Height: 3.8 m
Data from the previous 72 hours. | See also: Recent months at Wyndham Airport
Date/Time
CST
Temp
°C
App
Temp
°C
Dew
Point
°C
Rel
Hum
%
Delta-T
°C
Wind Press
QNH
hPa
Press
MSL
hPa
Rain since
9am
mm
Dir  Spd
km/h
Gust
km/h
Spd
kts
Gust
kts
27/06:00pm 33.9 38.9 24.8 59 6.4 ENE 7 11 4 6 1005.7 1005.7 0.0
27/05:30pm 34.2 38.8 24.7 57 6.7 ESE 9 13 5 7 1005.6 1005.6 0.0
27/05:00pm 34.1 38.3 24.7 58 6.6 SE 11 15 6 8 1005.5 1005.5 0.0
27/04:30pm 35.0 39.9 24.6 55 7.4 NNE 7 9 4 5 1005.6 1005.6 0.0
27/04:00pm 34.9 40.7 25.1 56 7.0 N 4 9 2 5 1005.8 1005.8 0.0
27/03:30pm 34.2 40.1 25.3 59 6.3 SSE 4 9 2 5 1006.0 1006.0 0.0
27/03:00pm 33.3 38.9 25.8 65 5.4 SSW 7 11 4 6 1006.5 1006.5 0.0
27/02:30pm 33.5 39.3 26.0 65 5.4 SE 7 11 4 6 1006.7 1006.7 0.0
27/02:00pm 33.0 37.9 25.8 66 5.1 WSW 11 15 6 8 1007.4 1007.4 0.0
27/01:30pm 32.8 39.3 27.1 72 4.1 WSW 7 11 4 6 1008.0 1008.0 0.0
27/01:00pm 32.0 37.5 26.8 74 3.7 WSW 11 17 6 9 1008.6 1008.6 0.0
27/12:30pm 31.5 36.8 27.0 77 3.3 WSW 13 17 7 9 1009.0 1009.0 0.0
27/12:00pm 31.7 40.0 30.0 91 1.3 WSW 9 17 5 9 1009.4 1009.4 0.0
27/11:30am 30.0 37.8 28.6 92 1.0 W 6 9 3 5 1009.9 1009.9 0.0
27/11:00am 29.3 38.0 29.3 100 0.0 SW 4 9 2 5 1010.2 1010.2 0.0
27/10:30am 29.1 37.6 29.1 100 0.0 SE 4 9 2 5 1010.6 1010.6 49.6
27/10:00am 28.2 35.5 28.2 100 0.0 ESE 7 11 4 6 1010.9 1010.9 49.6
27/09:30am 27.2 34.0 27.2 100 0.0 NE 6 7 3 4 1010.7 1010.7 49.6
27/09:00am 26.4 32.6 26.4 100 0.0 ESE 6 9 3 5 1010.4 1010.4 49.6
27/08:30am 25.5 30.9 25.5 100 0.0 S 7 9 4 5 1010.3 1010.3 49.2
27/08:00am 25.2 30.5 25.2 100 0.0 SSE 7 9 4 5 1010.1 1010.1 48.6
27/07:30am 25.0 31.1 25.0 100 0.0 ENE 2 7 1 4 1010.2 1010.2 48.6
27/07:00am 24.7 29.6 24.7 100 0.0 N 7 9 4 5 1009.8 1009.8 48.6
27/06:30am 24.6 28.7 24.6 100 0.0 E 11 13 6 7 1009.4 1009.4 48.4
27/06:00am 24.5 27.0 24.5 100 0.0 S 19 24 10 13 1009.5 1009.5 40.8
27/05:30am 25.3 27.4 25.3 100 0.0 SSW 24 32 13 17 1009.5 1009.5 10.8
27/05:00am 26.4 31.7 26.4 100 0.0 WSW 11 22 6 12 1009.3 1009.3 2.6
27/04:30am 26.1 31.2 26.1 100 0.0 SE 11 15 6 8 1008.9 1008.9 2.6
27/04:00am 26.0 29.9 26.0 100 0.0 ESE 17 20 9 11 1008.8 1008.8 2.6
27/03:30am 26.2 30.2 26.2 100 0.0 ESE 17 22 9 12 1008.7 1008.7 1.0
27/03:00am 27.3 32.1 26.2 94 0.8 ESE 13 17 7 9 1008.7 1008.7 0.0
27/02:30am 28.2 32.3 25.8 87 1.7 E 15 19 8 10 1009.2 1009.2 0.0
27/02:00am 28.0 32.5 25.8 88 1.6 E 13 17 7 9 1009.1 1009.1 0.0
27/01:30am 27.9 33.1 25.1 85 2.0 ESE 7 9 4 5 1009.4 1009.4 0.0
27/01:00am 28.1 32.9 25.1 84 2.1 E 9 13 5 7 1009.9 1009.9 0.0
27/12:30am 28.4 33.3 25.2 83 2.2 ENE 9 11 5 6 1010.2 1010.2 0.0
27/12:00am 28.4 33.3 25.2 83 2.2 E 9 11 5 6 1010.2 1010.2 0.0
 
Date/Time
CST
Temp
°C
App
Temp
°C
Dew
Point
°C
Rel
Hum
%
Delta-T
°C
Wind Press
QNH
hPa
Press
MSL
hPa
Rain since
9am
mm
Dir  Spd
km/h
Gust
km/h
Spd
kts
Gust
kts
26/11:30pm 28.4 32.3 24.8 81 2.5 SE 13 17 7 9 1010.0 1010.0 0.0
26/11:00pm 28.6 32.8 24.8 80 2.7 ESE 11 13 6 7 1009.8 1009.8 0.0
26/10:30pm 28.6 31.2 24.6 79 2.8 ESE 19 24 10 13 1009.6 1009.6 0.0
26/10:00pm 28.9 32.7 24.7 78 2.9 ESE 13 15 7 8 1009.2 1009.2 0.0
26/09:30pm 29.6 34.0 24.5 74 3.6 E 9 13 5 7 1008.9 1008.9 0.0
26/09:00pm 29.5 32.4 23.9 72 3.9 SE 15 19 8 10 1008.6 1008.6 0.0
26/08:30pm 29.8 35.1 23.7 70 4.2 W 2 7 1 4 1008.0 1008.0 0.0
26/08:00pm 29.3 32.8 23.5 71 4.0 NNE 11 13 6 7 1007.3 1007.3 0.0
26/07:30pm 29.6 31.8 24.2 73 3.8 NE 20 32 11 17 1007.0 1007.0 0.0
26/07:00pm 31.1 34.4 24.5 68 4.6 NNE 15 20 8 11 1006.3 1006.3 0.0
26/06:30pm 32.0 35.6 23.8 62 5.7 N 11 15 6 8 1005.8 1005.8 0.0
26/06:00pm 32.7 35.6 23.1 57 6.6 N 13 17 7 9 1005.4 1005.4 0.0
26/05:30pm 33.0 35.7 22.1 52 7.4 NNE 11 13 6 7 1005.2 1005.2 0.0
26/05:00pm 33.6 36.8 22.4 52 7.7 NE 9 13 5 7 1005.0 1005.0 0.0
26/04:30pm 33.8 35.8 22.2 50 8.0 NE 15 19 8 10 1004.8 1004.8 0.0
26/04:00pm 33.8 36.0 21.9 49 8.1 NE 13 17 7 9 1004.9 1004.9 0.0
26/03:30pm 34.1 36.1 21.5 47 8.6 NE 13 19 7 10 1005.2 1005.2 0.0
26/03:00pm 34.8 37.0 21.8 46 8.9 E 13 20 7 11 1005.3 1005.3 0.0
26/02:30pm 35.2 38.5 21.8 45 9.2 NNE 7 15 4 8 1005.3 1005.3 0.0
26/02:00pm 35.2 37.9 22.2 47 8.9 E 11 19 6 10 1005.8 1005.8 0.0
26/01:30pm 34.8 37.7 21.8 46 8.9 SE 9 17 5 9 1006.5 1006.5 0.0
26/01:00pm 34.6 37.6 22.0 48 8.6 SSE 9 17 5 9 1007.0 1007.0 0.0
26/12:30pm 34.4 38.8 22.8 51 8.0 SSE 4 9 2 5 1007.8 1007.8 0.0
26/12:00pm 33.4 37.6 23.1 54 7.1 W 6 11 3 6 1008.2 1008.2 0.0
26/11:30am 31.9 36.3 23.4 60 5.9 SSW 6 9 3 5 1008.8 1008.8 0.0
26/11:00am 31.0 35.2 23.4 64 5.2 S 7 11 4 6 1009.3 1009.3 0.0
26/10:30am 30.7 36.2 23.4 65 5.0 CALM 0 2 0 1 1009.7 1009.7 0.2
26/10:00am 30.3 35.9 23.5 67 4.7 CALM 0 0 0 0 1010.0 1010.0 0.2
26/09:30am 29.4 34.9 24.0 72 3.7 SSW 2 7 1 4 1010.0 1010.0 0.2
26/09:00am 28.4 34.1 23.8 76 3.2 CALM 0 0 0 0 1009.7 1009.7 0.2
26/08:30am 28.4 34.2 24.6 80 2.6 E 2 7 1 4 1009.5 1009.5 0.2
26/08:00am 27.4 33.9 25.0 87 1.7 CALM 0 0 0 0 1009.1 1009.1 0.2
26/07:30am 25.3 31.9 25.3 100 0.0 CALM 0 0 0 0 1008.6 1008.6 0.2
26/07:00am 24.8 30.4 24.8 100 0.0 N 4 7 2 4 1008.4 1008.4 0.2
26/06:30am 25.0 30.1 25.0 100 0.0 NNE 7 9 4 5 1008.2 1008.2 0.2
26/06:00am 24.9 30.2 24.9 100 0.0 N 6 7 3 4 1007.9 1007.9 0.2
26/05:30am 25.0 31.3 24.7 98 0.2 CALM 0 2 0 1 1007.6 1007.6 0.2
26/05:00am 24.8 29.3 24.6 99 0.1 NNW 9 11 5 6 1007.3 1007.3 0.2
26/04:30am 25.1 29.6 23.7 92 1.0 NW 6 9 3 5 1007.1 1007.1 0.2
26/04:00am 24.7 29.0 24.2 97 0.3 NE 9 11 5 6 1006.9 1006.9 0.2
26/03:30am 25.4 26.8 23.6 90 1.2 ESE 22 30 12 16 1007.5 1007.5 0.2
26/03:00am 25.0 28.0 24.7 98 0.2 ENE 17 20 9 11 1007.8 1007.8 0.2
26/02:30am 26.6 27.7 23.1 81 2.4 E 22 30 12 16 1008.3 1008.3 0.0
26/02:00am 27.0 27.0 23.0 79 2.7 E 28 37 15 20 1008.8 1008.8 0.0
26/01:30am 27.4 30.1 24.1 82 2.3 E 17 24 9 13 1008.8 1008.8 0.0
26/01:00am 28.1 30.7 23.9 78 2.9 E 17 26 9 14 1008.8 1008.8 0.0
26/12:30am 27.9 31.2 23.9 79 2.8 ENE 13 17 7 9 1008.7 1008.7 0.0
26/12:00am 28.5 32.1 24.3 78 2.9 E 13 15 7 8 1008.5 1008.5 0.0
 
Date/Time
CST
Temp
°C
App
Temp
°C
Dew
Point
°C
Rel
Hum
%
Delta-T
°C
Wind Press
QNH
hPa
Press
MSL
hPa
Rain since
9am
mm
Dir  Spd
km/h
Gust
km/h
Spd
kts
Gust
kts
25/11:30pm 28.0 32.1 24.0 79 2.8 E 9 11 5 6 1008.1 1008.1 0.0
25/11:00pm 28.3 33.8 24.1 78 2.9 SE 2 9 1 5 1007.9 1007.9 0.0
25/10:30pm 28.5 34.3 23.9 76 3.2 CALM 0 0 0 0 1007.7 1007.7 0.0
25/10:00pm 28.0 32.5 23.6 77 3.0 NNE 6 7 3 4 1007.8 1007.8 0.0
25/09:30pm 28.2 32.3 23.3 75 3.4 NNE 7 9 4 5 1007.7 1007.7 0.0
25/09:00pm 28.7 33.9 22.9 71 4.0 CALM 0 4 0 2 1007.6 1007.6 0.0
25/08:30pm 29.3 32.8 22.8 68 4.4 ESE 9 13 5 7 1007.2 1007.2 0.0
25/08:00pm 29.5 32.4 23.2 69 4.3 E 13 17 7 9 1006.7 1006.7 0.0
25/07:30pm 29.6 31.9 22.8 67 4.7 E 15 20 8 11 1005.8 1005.8 0.0
25/07:00pm 30.3 31.1 22.5 63 5.3 E 22 30 12 16 1006.2 1006.2 0.0
25/06:30pm 31.2 33.3 22.5 60 6.0 ESE 15 19 8 10 1005.2 1005.2 0.0
25/06:00pm 31.4 32.5 21.3 55 6.8 ESE 17 20 9 11 1004.8 1004.8 0.0
25/05:30pm 32.7 33.6 20.9 49 7.9 ESE 17 22 9 12 1004.5 1004.5 0.0
25/05:00pm 33.2 33.5 19.7 45 8.9 NNE 17 28 9 15 1003.8 1003.8 0.0
25/04:30pm 31.6 30.6 18.9 47 8.3 N 22 30 12 16 1004.3 1004.3 0.0
25/04:00pm 29.5 26.7 19.5 55 6.5 N 33 46 18 25 1004.8 1004.8 0.0
25/03:30pm 29.8 26.4 18.9 52 7.1 NNE 35 63 19 34 1005.1 1005.1 0.0
25/03:28pm 30.5 28.9 19.2 51 7.4 NE 26 61 14 33 1005.1 1005.1 0.0
25/03:25pm 32.0 32.2 19.3 47 8.3 E 17 46 9 25 1004.9 1004.9 0.0
25/03:00pm 36.9 39.9 21.9 42 10.3 SE 9 17 5 9 1004.9 1004.9 0.0
25/02:30pm 36.3 39.6 22.5 45 9.6 SE 9 15 5 8 1005.1 1005.1 0.0
25/02:00pm 35.8 38.8 22.7 46 9.1 SE 11 15 6 8 1005.6 1005.6 0.0
25/01:30pm 36.0 40.6 23.2 47 8.9 NE 4 15 2 8 1005.8 1005.8 0.0
25/01:00pm 34.9 38.4 22.2 47 8.7 S 7 11 4 6 1006.7 1006.7 0.0
25/12:30pm 35.2 38.7 22.9 49 8.5 SE 9 13 5 7 1007.3 1007.3 0.0
25/12:00pm 34.7 38.1 22.7 49 8.3 SE 9 11 5 6 1007.8 1007.8 0.0
25/11:30am 33.7 37.0 22.5 52 7.7 SSE 9 15 5 8 1008.2 1008.2 0.0
25/11:00am 33.1 36.3 23.7 57 6.5 SE 13 17 7 9 1008.7 1008.7 0.0
25/10:30am 32.4 35.4 23.4 59 6.2 SE 13 17 7 9 1008.8 1008.8 0.0
25/10:00am 32.0 35.4 23.3 60 6.0 SE 11 15 6 8 1008.9 1008.9 0.0
25/09:30am 31.8 35.7 23.6 62 5.7 ESE 9 11 5 6 1008.9 1008.9 0.0
25/09:00am 31.1 35.7 24.2 66 4.8 E 7 9 4 5 1008.7 1008.7 0.0
25/08:30am 30.2 35.5 25.3 75 3.5 ENE 7 9 4 5 1008.5 1008.5 0.0
25/08:00am 27.8 33.7 26.2 91 1.1 NE 7 11 4 6 1008.1 1008.1 0.0
25/07:30am 27.0 33.6 27.0 100 0.0 NE 6 7 3 4 1008.0 1008.0 0.0
25/07:00am 26.7 33.1 26.7 100 0.0 ENE 6 7 3 4 1007.8 1007.8 0.0
25/06:30am 27.1 32.8 27.1 100 0.0 E 11 15 6 8 1007.3 1007.3 0.0
25/06:00am 26.6 33.0 26.6 100 0.0 SE 6 9 3 5 1006.6 1006.6 0.0
25/05:30am 26.8 33.7 26.3 97 0.4 NE 2 6 1 3 1006.2 1006.2 0.0
25/05:00am 26.8 32.6 26.1 96 0.5 E 7 11 4 6 1005.8 1005.8 0.0
25/04:30am 26.8 32.4 26.3 97 0.4 E 9 11 5 6 1005.4 1005.4 0.0
25/04:00am 27.1 32.8 26.4 96 0.5 E 9 11 5 6 1005.8 1005.8 0.0
25/03:30am 27.4 32.8 27.1 98 0.2 E 13 15 7 8 1006.2 1006.2 0.0
25/03:00am 27.7 32.5 27.4 98 0.2 ESE 17 24 9 13 1006.9 1006.9 0.0
25/02:30am 27.5 34.9 26.4 94 0.8 CALM 0 0 0 0 1007.2 1007.2 0.0
25/02:00am 27.4 34.4 25.8 91 1.1 CALM 0 0 0 0 1007.3 1007.3 0.0
25/01:30am 27.3 34.2 25.7 91 1.1 CALM 0 0 0 0 1007.6 1007.6 0.0
25/01:00am 27.3 33.9 25.3 89 1.4 CALM 0 2 0 1 1007.7 1007.7 0.0
25/12:30am 28.1 34.5 25.5 86 1.8 SE 2 6 1 3 1008.0 1008.0 0.0
25/12:00am 27.8 33.5 25.0 85 2.0 NE 4 7 2 4 1008.2 1008.2 0.0
 
Date/Time
CST
Temp
°C
App
Temp
°C
Dew
Point
°C
Rel
Hum
%
Delta-T
°C
Wind Press
QNH
hPa
Press
MSL
hPa
Rain since
9am
mm
Dir  Spd
km/h
Gust
km/h
Spd
kts
Gust
kts
24/11:30pm 28.1 34.5 24.9 83 2.2 CALM 0 6 0 3 1008.4 1008.4 0.0
24/11:00pm 28.5 34.9 24.9 81 2.5 CALM 0 0 0 0 1008.3 1008.3 0.0
24/10:30pm 28.6 35.2 25.2 82 2.4 CALM 0 0 0 0 1008.3 1008.3 0.0
24/10:00pm 29.0 34.3 25.0 79 2.8 NW 6 7 3 4 1007.9 1007.9 0.0
24/09:30pm 29.0 34.1 25.0 79 2.8 NNW 7 11 4 6 1007.6 1007.6 0.0
24/09:00pm 28.5 33.1 24.1 77 3.0 NE 7 9 4 5 1007.1 1007.1 0.0
24/08:30pm 29.0 33.2 23.4 72 3.9 NNW 7 11 4 6 1006.3 1006.3 0.0
24/08:00pm 28.7 31.8 23.6 74 3.5 ENE 13 15 7 8 1005.9 1005.9 0.0

Other Formats:

Comma delimited format used in spreadsheet applications
http://www.bom.gov.au/fwo/IDD60801/IDD60801.95214.axf

JavaScript Object Notation format (JSON) in row-major order
http://www.bom.gov.au/fwo/IDD60801/IDD60801.95214.json